createdAt,value
2024-03-12T00:02:11.480Z,6.10
2024-03-12T00:04:42.174Z,5.80
2024-03-12T00:07:11.286Z,5.60
2024-03-12T00:09:39.880Z,6.30
2024-03-12T00:12:08.625Z,6.10
2024-03-12T00:14:36.690Z,5.90
2024-03-12T00:17:05.193Z,5.70
2024-03-12T00:19:34.955Z,6.00
2024-03-12T00:22:03.393Z,5.60
2024-03-12T00:24:31.669Z,6.40
2024-03-12T00:26:59.943Z,6.00
2024-03-12T00:29:28.014Z,6.40
2024-03-12T00:31:56.802Z,6.00
2024-03-12T00:34:26.820Z,5.80
2024-03-12T00:36:54.984Z,5.90
2024-03-12T00:39:23.390Z,5.90
2024-03-12T00:41:51.612Z,5.50
2024-03-12T00:44:21.168Z,5.80
2024-03-12T00:46:50.285Z,5.70
2024-03-12T00:49:18.370Z,6.50
2024-03-12T00:51:46.678Z,6.30
2024-03-12T00:54:15.090Z,6.10
2024-03-12T00:56:43.415Z,6.30
2024-03-12T00:59:11.558Z,5.90
2024-03-12T01:01:40.114Z,6.50
2024-03-12T01:04:08.412Z,5.60
2024-03-12T01:06:36.711Z,6.10
2024-03-12T01:09:07.620Z,6.40
2024-03-12T01:11:35.774Z,7.10
2024-03-12T01:14:06.502Z,6.40
2024-03-12T01:16:34.834Z,5.60
2024-03-12T01:19:03.136Z,6.20
2024-03-12T01:21:33.640Z,6.40
2024-03-12T01:24:05.900Z,6.30
2024-03-12T01:26:35.833Z,5.60
2024-03-12T01:29:04.722Z,6.40
2024-03-12T01:31:33.052Z,6.40
2024-03-12T01:34:01.388Z,6.10
2024-03-12T01:36:36.041Z,6.40
2024-03-12T01:39:09.462Z,5.90
2024-03-12T01:41:43.199Z,6.20
2024-03-12T01:44:12.564Z,6.10
2024-03-12T01:46:41.190Z,5.90
2024-03-12T01:49:10.537Z,6.80
2024-03-12T01:51:39.281Z,6.40
2024-03-12T01:54:07.612Z,6.00
2024-03-12T01:56:36.562Z,5.80
2024-03-12T01:59:04.883Z,5.90
2024-03-12T02:01:33.229Z,6.30
2024-03-12T02:04:03.570Z,5.50
2024-03-12T02:06:31.889Z,6.00
2024-03-12T02:09:04.619Z,5.80
2024-03-12T02:11:32.979Z,5.30
2024-03-12T02:14:01.153Z,5.50
2024-03-12T02:16:29.583Z,5.70
2024-03-12T02:18:57.848Z,5.60
2024-03-12T02:21:26.161Z,5.40
2024-03-12T02:23:54.640Z,5.20
2024-03-12T02:26:22.755Z,5.70
2024-03-12T02:28:51.383Z,5.90
2024-03-12T02:31:21.067Z,5.30
2024-03-12T02:33:49.492Z,5.90
2024-03-12T02:36:18.586Z,6.00
2024-03-12T02:38:47.356Z,6.00
2024-03-12T02:41:16.563Z,5.30
2024-03-12T02:43:44.624Z,5.60
2024-03-12T02:46:12.982Z,6.10
2024-03-12T02:48:43.332Z,5.50
2024-03-12T02:51:11.632Z,6.10
2024-03-12T02:53:39.897Z,5.90
2024-03-12T02:56:08.148Z,5.90
2024-03-12T02:58:37.198Z,6.20
2024-03-12T03:01:06.337Z,5.90
2024-03-12T03:03:35.458Z,6.10
2024-03-12T03:06:04.152Z,6.30
2024-03-12T03:08:32.698Z,5.20
2024-03-12T03:11:01.173Z,5.90
2024-03-12T03:13:29.549Z,5.10
2024-03-12T03:15:58.107Z,6.00
2024-03-12T03:18:28.818Z,6.40
2024-03-12T03:20:57.700Z,6.10
2024-03-12T03:23:25.988Z,6.00
2024-03-12T03:25:54.160Z,6.00
2024-03-12T03:28:22.347Z,6.70
2024-03-12T03:30:51.315Z,6.10
2024-03-12T03:33:19.408Z,6.00
2024-03-12T03:35:47.510Z,6.30
2024-03-12T03:38:15.622Z,6.80
2024-03-12T03:40:43.786Z,6.60
2024-03-12T03:43:13.752Z,6.90
2024-03-12T03:45:42.718Z,6.80
2024-03-12T03:48:10.942Z,6.60
2024-03-12T03:50:39.177Z,6.80
2024-03-12T03:53:09.318Z,7.10
2024-03-12T03:55:40.250Z,6.70
2024-03-12T03:58:08.793Z,7.60
2024-03-12T04:00:38.190Z,7.40
2024-03-12T04:03:10.597Z,6.30
2024-03-12T04:05:38.861Z,6.80
2024-03-12T04:08:07.732Z,6.20
2024-03-12T04:10:35.893Z,6.30
2024-03-12T04:13:05.720Z,6.10
2024-03-12T04:15:35.231Z,5.80
2024-03-12T04:18:03.896Z,6.30
2024-03-12T04:20:32.261Z,6.30
2024-03-12T04:23:02.562Z,6.30
2024-03-12T04:25:30.798Z,6.60
2024-03-12T04:27:59.389Z,6.80
2024-03-12T04:30:27.753Z,6.40
2024-03-12T04:32:56.064Z,6.80
2024-03-12T04:35:24.170Z,6.90
2024-03-12T04:37:52.323Z,7.00
2024-03-12T04:40:22.637Z,7.50
2024-03-12T04:42:51.111Z,7.50
2024-03-12T04:45:19.667Z,6.90
2024-03-12T04:47:50.166Z,6.70
2024-03-12T04:50:20.422Z,7.70
2024-03-12T04:52:48.827Z,6.50
2024-03-12T04:55:17.541Z,7.40
2024-03-12T04:57:45.773Z,6.90
2024-03-12T05:00:21.062Z,6.90
2024-03-12T05:02:52.276Z,7.40
2024-03-12T05:05:22.598Z,7.00
2024-03-12T05:07:52.097Z,8.10
2024-03-12T05:10:23.943Z,7.00
2024-03-12T05:12:52.877Z,7.40
2024-03-12T05:15:22.517Z,6.70
2024-03-12T05:17:50.835Z,6.50
2024-03-12T05:20:23.923Z,7.10
2024-03-12T05:22:52.326Z,6.70
2024-03-12T05:25:24.813Z,6.40
2024-03-12T05:27:53.239Z,5.90
2024-03-12T05:30:23.296Z,5.70
2024-03-12T05:32:54.926Z,5.70
2024-03-12T05:35:24.401Z,6.60
2024-03-12T05:38:23.760Z,5.40
2024-03-12T05:40:58.880Z,6.10
2024-03-12T05:43:48.165Z,6.10
2024-03-12T05:46:36.696Z,6.30
2024-03-12T05:49:05.374Z,7.80
2024-03-12T05:51:36.299Z,6.80
2024-03-12T05:54:06.415Z,6.00
2024-03-12T05:56:38.973Z,7.00
2024-03-12T05:59:08.620Z,6.20
2024-03-12T06:01:37.274Z,6.80
2024-03-12T06:04:06.291Z,7.50
2024-03-12T06:06:34.952Z,6.90
2024-03-12T06:09:03.187Z,7.50
2024-03-12T06:11:32.716Z,7.20
2024-03-12T06:14:04.241Z,8.30
2024-03-12T06:16:33.870Z,8.30
2024-03-12T06:19:02.233Z,7.30
2024-03-12T06:21:31.117Z,7.00
2024-03-12T06:23:59.747Z,6.90
2024-03-12T06:26:29.380Z,8.20
2024-03-12T06:28:58.274Z,8.40
2024-03-12T06:31:26.461Z,7.20
2024-03-12T06:33:55.676Z,6.90
2024-03-12T06:36:23.813Z,6.90
2024-03-12T06:38:53.456Z,7.30
2024-03-12T06:41:22.110Z,7.30
2024-03-12T06:43:50.413Z,7.60
2024-03-12T06:46:20.933Z,6.80
2024-03-12T06:48:49.881Z,6.50
2024-03-12T06:51:18.940Z,5.80
2024-03-12T06:53:46.994Z,6.90
2024-03-12T06:56:18.353Z,6.90
2024-03-12T06:58:47.232Z,7.50
2024-03-12T07:01:16.636Z,6.90
2024-03-12T07:03:47.149Z,6.30
2024-03-12T07:06:16.637Z,6.60
2024-03-12T07:08:45.872Z,7.70
2024-03-12T07:11:15.997Z,7.30
2024-03-12T07:13:49.923Z,6.30
2024-03-12T07:16:18.199Z,6.30
2024-03-12T07:18:47.942Z,6.20
2024-03-12T07:21:17.414Z,5.80
2024-03-12T07:23:45.669Z,5.10
2024-03-12T07:26:13.857Z,5.70
2024-03-12T07:28:44.121Z,5.20
2024-03-12T07:31:12.499Z,5.80
2024-03-12T07:33:40.890Z,6.10
2024-03-12T07:36:09.403Z,5.70
2024-03-12T07:38:39.705Z,6.10
2024-03-12T07:41:10.411Z,6.00
2024-03-12T07:43:39.033Z,6.00
2024-03-12T07:46:08.681Z,5.60
2024-03-12T07:48:38.320Z,5.20
2024-03-12T07:51:10.434Z,5.80
2024-03-12T07:53:38.693Z,4.80
2024-03-12T07:56:08.098Z,5.90
2024-03-12T07:58:36.906Z,4.70
2024-03-12T08:01:05.403Z,4.90
2024-03-12T08:03:33.659Z,4.80
2024-03-12T08:06:10.356Z,4.70
2024-03-12T08:08:38.534Z,4.90
2024-03-12T08:11:06.729Z,5.00
2024-03-12T08:13:36.231Z,4.90
2024-03-12T08:16:04.720Z,5.00
2024-03-12T08:18:33.208Z,4.50
2024-03-12T08:21:03.558Z,5.10
2024-03-12T08:23:31.689Z,4.40
2024-03-12T08:26:01.064Z,5.10
2024-03-12T08:28:32.606Z,5.10
2024-03-12T08:31:07.968Z,4.90
2024-03-12T08:33:43.021Z,4.40
2024-03-12T08:36:12.280Z,4.50
2024-03-12T08:38:40.956Z,4.80
2024-03-12T08:41:11.819Z,4.90
2024-03-12T08:43:39.980Z,4.60
2024-03-12T08:46:08.712Z,4.70
2024-03-12T08:48:37.205Z,4.40
2024-03-12T08:51:05.730Z,4.00
2024-03-12T08:53:37.005Z,4.60
2024-03-12T08:56:05.860Z,4.90
2024-03-12T08:58:34.432Z,4.60
2024-03-12T09:01:03.433Z,4.50
2024-03-12T09:03:31.937Z,5.10
2024-03-12T09:06:01.237Z,4.50
2024-03-12T09:08:30.936Z,5.10
2024-03-12T09:10:59.213Z,5.20
2024-03-12T09:13:27.510Z,5.40
2024-03-12T09:15:56.834Z,5.70
2024-03-12T09:18:27.554Z,4.50
2024-03-12T09:20:56.858Z,4.70
2024-03-12T09:23:26.724Z,4.90
2024-03-12T09:25:56.269Z,4.50
2024-03-12T09:28:24.397Z,4.80
2024-03-12T09:30:52.776Z,5.40
2024-03-12T09:33:21.330Z,4.80
2024-03-12T09:35:50.377Z,5.30
2024-03-12T09:38:18.888Z,5.30
2024-03-12T09:40:52.049Z,4.40
2024-03-12T09:43:23.826Z,4.60
2024-03-12T09:45:52.686Z,3.80
2024-03-12T09:48:23.235Z,3.80
2024-03-12T09:50:51.906Z,3.70
2024-03-12T09:53:22.374Z,3.80
2024-03-12T09:55:51.454Z,3.30
2024-03-12T09:58:19.709Z,4.00
2024-03-12T10:00:48.541Z,4.50
2024-03-12T10:03:20.976Z,4.90
2024-03-12T10:05:49.223Z,3.80
2024-03-12T10:08:19.184Z,4.00
2024-03-12T10:10:49.261Z,4.50
2024-03-12T10:13:19.011Z,4.60
2024-03-12T10:15:55.440Z,4.40
2024-03-12T10:21:13.307Z,5.00
2024-03-12T10:23:42.381Z,4.50
2024-03-12T10:26:17.793Z,5.10
2024-03-12T10:28:47.175Z,5.80
2024-03-12T10:31:16.226Z,5.30
2024-03-12T10:33:50.233Z,6.00
2024-03-12T10:36:35.385Z,5.60
2024-03-12T10:39:13.506Z,5.30
2024-03-12T10:41:45.343Z,6.20
2024-03-12T10:44:13.527Z,5.30
2024-03-12T10:46:44.782Z,5.70
2024-03-12T10:49:16.819Z,6.20
2024-03-12T10:51:46.278Z,6.20
2024-03-12T10:54:17.750Z,6.90
2024-03-12T10:56:47.677Z,6.00
2024-03-12T10:59:17.647Z,7.20
2024-03-12T11:01:49.294Z,5.60
2024-03-12T11:04:18.800Z,5.90
2024-03-12T11:06:49.928Z,4.80
2024-03-12T11:09:23.312Z,4.90
2024-03-12T11:11:51.914Z,5.20
2024-03-12T11:14:21.918Z,5.20
2024-03-12T11:16:50.590Z,4.70
2024-03-12T11:19:26.196Z,5.10
2024-03-12T11:22:02.615Z,6.10
2024-03-12T11:27:01.774Z,5.50
2024-03-12T11:30:19.876Z,4.80
2024-03-12T11:32:51.408Z,5.10
2024-03-12T11:35:19.692Z,5.00
2024-03-12T11:38:11.775Z,5.20
2024-03-12T11:40:52.780Z,5.00
2024-03-12T11:43:54.336Z,4.40
2024-03-12T11:46:49.432Z,4.50
2024-03-12T11:49:33.210Z,5.20
2024-03-12T11:52:02.603Z,4.80
2024-03-12T11:54:40.841Z,4.80
2024-03-12T11:57:22.875Z,4.50
2024-03-12T11:59:52.307Z,4.40
2024-03-12T12:02:21.974Z,4.80
2024-03-12T12:04:57.516Z,4.70
2024-03-12T12:07:29.266Z,4.80
2024-03-12T12:09:57.601Z,5.20
2024-03-12T12:12:28.043Z,4.60
2024-03-12T12:14:56.156Z,5.30
2024-03-12T12:17:25.583Z,5.00
2024-03-12T12:20:17.955Z,5.20
2024-03-12T12:22:47.768Z,6.40
2024-03-12T12:25:20.717Z,5.40
2024-03-12T12:27:49.175Z,5.40
2024-03-12T12:30:22.136Z,6.50
2024-03-12T12:32:52.781Z,6.10
2024-03-12T12:35:22.325Z,6.50
2024-03-12T12:37:52.146Z,6.00
2024-03-12T12:40:22.987Z,5.70
2024-03-12T12:42:52.050Z,7.00
2024-03-12T12:45:20.519Z,6.20
2024-03-12T12:47:50.524Z,6.50
2024-03-12T12:50:31.132Z,6.80
2024-03-12T12:53:02.226Z,6.90
2024-03-12T12:55:33.798Z,6.50
2024-03-12T12:58:04.404Z,6.60
2024-03-12T13:00:37.770Z,6.70
2024-03-12T13:03:17.750Z,7.20
2024-03-12T13:05:47.786Z,7.20
2024-03-12T13:08:21.378Z,8.00
2024-03-12T13:11:01.166Z,8.10
2024-03-12T13:13:29.678Z,8.10
2024-03-12T13:16:10.373Z,9.20
2024-03-12T13:18:40.623Z,9.40
2024-03-12T13:21:09.647Z,9.10
2024-03-12T13:23:38.062Z,8.70
2024-03-12T13:26:07.522Z,9.80
2024-03-12T13:28:36.657Z,9.80
2024-03-12T13:31:06.129Z,9.40
2024-03-12T13:33:34.793Z,9.50
2024-03-12T13:36:03.081Z,9.50
2024-03-12T13:38:31.295Z,9.20
2024-03-12T13:40:59.463Z,9.70
2024-03-12T13:43:28.472Z,10.20
2024-03-12T13:45:57.721Z,9.00
2024-03-12T13:48:28.302Z,9.20
2024-03-12T13:51:01.496Z,9.90
2024-03-12T13:53:29.816Z,9.60
2024-03-12T13:55:59.468Z,9.30
2024-03-12T13:58:28.201Z,8.70
2024-03-12T14:00:58.818Z,9.20
2024-03-12T14:03:32.135Z,8.50
2024-03-12T14:06:03.522Z,9.40
2024-03-12T14:08:31.877Z,9.00
2024-03-12T14:11:00.063Z,8.80
2024-03-12T14:13:28.855Z,7.80
2024-03-12T14:15:57.242Z,7.60
2024-03-12T14:18:27.897Z,7.50
2024-03-12T14:20:56.641Z,7.20
2024-03-12T14:23:24.978Z,6.50
2024-03-12T14:25:54.438Z,6.90
2024-03-12T14:28:23.164Z,6.20
2024-03-12T14:30:51.564Z,5.70
2024-03-12T14:33:19.942Z,6.50
2024-03-12T14:35:48.357Z,6.50
2024-03-12T14:38:16.743Z,6.60
2024-03-12T14:40:45.127Z,7.60
2024-03-12T14:43:13.499Z,6.40
2024-03-12T14:45:43.135Z,6.40
2024-03-12T14:48:11.989Z,6.90
2024-03-12T14:50:40.391Z,6.70
2024-03-12T14:53:09.209Z,7.00
2024-03-12T14:55:38.098Z,7.00
2024-03-12T14:58:08.919Z,6.50
2024-03-12T15:00:40.655Z,7.30
2024-03-12T15:03:09.235Z,6.40
2024-03-12T15:05:37.728Z,6.30
2024-03-12T15:08:06.337Z,6.40
2024-03-12T15:10:34.504Z,5.90
2024-03-12T15:13:02.896Z,6.60
2024-03-12T15:15:31.624Z,6.50
2024-03-12T15:18:01.711Z,6.20
2024-03-12T15:20:31.248Z,6.40
2024-03-12T15:23:00.246Z,6.80
2024-03-12T15:25:29.320Z,6.00
2024-03-12T15:27:58.557Z,5.80
2024-03-12T15:30:27.184Z,7.00
2024-03-12T15:32:55.902Z,10.00
2024-03-12T15:35:25.427Z,9.60
2024-03-12T15:37:55.372Z,8.30
2024-03-12T15:40:24.157Z,6.70
2024-03-12T15:42:52.855Z,7.10
2024-03-12T15:45:22.119Z,8.70
2024-03-12T15:47:50.470Z,7.90
2024-03-12T15:50:18.774Z,8.00
2024-03-12T15:52:47.643Z,7.50
2024-03-12T15:55:16.166Z,7.40
2024-03-12T15:57:47.030Z,8.00
2024-03-12T16:00:16.094Z,8.00
2024-03-12T16:02:45.255Z,8.20
2024-03-12T16:05:13.856Z,7.90
2024-03-12T16:07:42.046Z,8.20
2024-03-12T16:10:11.346Z,8.20
2024-03-12T16:12:42.947Z,9.00
2024-03-12T16:15:15.123Z,9.70
2024-03-12T16:17:44.026Z,8.80
2024-03-12T16:20:16.576Z,9.10
2024-03-12T16:22:44.908Z,10.10
2024-03-12T16:25:16.734Z,9.50
2024-03-12T16:27:45.209Z,8.80
2024-03-12T16:30:15.725Z,8.90
2024-03-12T16:32:45.361Z,8.70
2024-03-12T16:35:16.595Z,8.50
2024-03-12T16:37:45.429Z,8.90
2024-03-12T16:40:14.353Z,8.70
2024-03-12T16:42:44.493Z,9.50
2024-03-12T16:45:13.736Z,8.90
2024-03-12T16:47:43.372Z,9.50
2024-03-12T16:50:12.431Z,10.50
2024-03-12T16:52:41.622Z,10.00
2024-03-12T16:55:10.937Z,10.00
2024-03-12T16:57:39.874Z,9.90
2024-03-12T17:00:15.494Z,10.40
2024-03-12T17:02:45.430Z,10.40
2024-03-12T17:05:23.783Z,10.40
2024-03-12T17:07:56.980Z,10.90
2024-03-12T17:10:26.375Z,11.00
2024-03-12T17:12:55.252Z,11.50
2024-03-12T17:15:24.643Z,11.20
2024-03-12T17:17:53.537Z,12.00
2024-03-12T17:20:22.250Z,12.20
2024-03-12T17:22:52.018Z,12.10
2024-03-12T17:25:20.942Z,13.50
2024-03-12T17:27:52.979Z,15.30
2024-03-12T17:30:25.615Z,15.70
2024-03-12T17:32:56.420Z,13.70
2024-03-12T17:35:25.371Z,13.10
2024-03-12T17:37:59.640Z,13.40
2024-03-12T17:40:29.274Z,12.60
2024-03-12T17:43:01.146Z,12.10
2024-03-12T17:45:31.520Z,11.20
2024-03-12T17:48:02.418Z,12.00
2024-03-12T17:50:32.096Z,11.20
2024-03-12T17:53:07.670Z,11.80
2024-03-12T17:55:37.472Z,11.10
2024-03-12T17:58:10.257Z,10.90
2024-03-12T18:00:39.291Z,11.10
2024-03-12T18:03:09.295Z,11.10
2024-03-12T18:05:38.264Z,9.80
2024-03-12T18:08:11.465Z,9.10
2024-03-12T18:10:41.145Z,10.60
2024-03-12T18:13:11.971Z,9.60
2024-03-12T18:15:41.396Z,10.30
2024-03-12T18:18:11.097Z,11.10
2024-03-12T18:20:42.143Z,10.40
2024-03-12T18:23:10.393Z,9.30
2024-03-12T18:25:38.714Z,9.20
2024-03-12T18:28:08.986Z,9.40
2024-03-12T18:30:37.752Z,9.50
2024-03-12T18:33:06.239Z,9.30
2024-03-12T18:35:34.597Z,10.80
2024-03-12T18:38:04.096Z,10.80
2024-03-12T18:40:33.185Z,10.60
2024-03-12T18:43:04.754Z,11.00
2024-03-12T18:45:33.424Z,11.60
2024-03-12T18:48:02.340Z,11.00
2024-03-12T18:50:33.172Z,10.50
2024-03-12T18:53:01.945Z,11.60
2024-03-12T18:55:31.580Z,10.80
2024-03-12T18:58:00.981Z,11.50
2024-03-12T19:00:30.126Z,10.30
2024-03-12T19:03:12.985Z,10.00
2024-03-12T19:05:41.782Z,9.40
2024-03-12T19:08:10.717Z,9.90
2024-03-12T19:10:39.552Z,9.30
2024-03-12T19:13:11.142Z,9.50
2024-03-12T19:15:44.201Z,9.50
2024-03-12T19:18:15.413Z,9.20
2024-03-12T19:20:44.082Z,9.70
2024-03-12T19:23:12.867Z,8.30
2024-03-12T19:25:41.519Z,9.00
2024-03-12T19:28:10.162Z,9.20
2024-03-12T19:30:39.828Z,9.00
2024-03-12T19:33:09.847Z,12.70
2024-03-12T19:35:39.976Z,10.60
2024-03-12T19:38:10.410Z,9.10
2024-03-12T19:40:39.238Z,9.60
2024-03-12T19:43:08.575Z,9.90
2024-03-12T19:45:37.412Z,9.80
2024-03-12T19:48:07.306Z,10.10
2024-03-12T19:50:36.892Z,9.40
2024-03-12T19:53:05.074Z,9.60
2024-03-12T19:55:35.240Z,9.50
2024-03-12T19:58:05.588Z,9.50
2024-03-12T20:00:35.155Z,9.20
2024-03-12T20:03:07.779Z,8.60
2024-03-12T20:05:37.371Z,9.00
2024-03-12T20:08:10.420Z,9.60
2024-03-12T20:10:39.006Z,9.10
2024-03-12T20:13:07.733Z,10.50
2024-03-12T20:15:38.317Z,9.60
2024-03-12T20:18:07.616Z,10.60
2024-03-12T20:20:36.840Z,12.90
2024-03-12T20:23:07.268Z,13.40
2024-03-12T20:25:35.889Z,12.00
2024-03-12T20:28:10.836Z,10.90
2024-03-12T20:30:40.758Z,11.70
2024-03-12T20:33:12.059Z,9.30
2024-03-12T20:35:40.516Z,10.20
2024-03-12T20:38:10.277Z,9.70
2024-03-12T20:40:38.698Z,8.90
2024-03-12T20:43:07.496Z,8.70
2024-03-12T20:45:39.444Z,7.80
2024-03-12T20:48:11.772Z,7.90
2024-03-12T20:50:41.312Z,7.10
2024-03-12T20:53:11.567Z,7.40
2024-03-12T20:55:40.637Z,7.20
2024-03-12T20:58:09.012Z,7.50
2024-03-12T21:00:39.196Z,7.00
2024-03-12T21:03:11.188Z,6.60
2024-03-12T21:05:40.745Z,6.30
2024-03-12T21:08:09.338Z,5.20
2024-03-12T21:10:39.424Z,4.70
2024-03-12T21:13:07.949Z,4.60
2024-03-12T21:15:36.354Z,4.70
2024-03-12T21:18:07.429Z,4.30
2024-03-12T21:20:36.361Z,4.40
2024-03-12T21:23:05.270Z,3.90
2024-03-12T21:25:34.812Z,4.90
2024-03-12T21:28:04.266Z,4.60
2024-03-12T21:30:32.962Z,3.50
2024-03-12T21:33:01.260Z,4.50
2024-03-12T21:35:30.312Z,3.20
2024-03-12T21:37:58.809Z,3.30
2024-03-12T21:40:28.213Z,3.50
2024-03-12T21:42:56.818Z,3.30
2024-03-12T21:45:26.082Z,3.60
2024-03-12T21:47:54.308Z,3.40
2024-03-12T21:50:23.065Z,3.40
2024-03-12T21:52:52.098Z,3.40
2024-03-12T21:55:21.080Z,3.60
2024-03-12T21:57:50.143Z,3.30
2024-03-12T22:00:20.606Z,3.70
2024-03-12T22:02:50.074Z,3.70
2024-03-12T22:05:21.350Z,3.90
2024-03-12T22:07:50.864Z,3.90
2024-03-12T22:10:19.964Z,3.90
2024-03-12T22:12:48.575Z,3.70
2024-03-12T22:15:17.171Z,3.90
2024-03-12T22:17:46.866Z,4.00
2024-03-12T22:20:17.909Z,4.20
2024-03-12T22:22:46.831Z,3.90
2024-03-12T22:25:15.593Z,4.00
2024-03-12T22:27:45.412Z,4.30
2024-03-12T22:30:13.687Z,4.00
2024-03-12T22:32:43.508Z,4.70
2024-03-12T22:35:12.341Z,4.80
2024-03-12T22:37:43.532Z,4.20
2024-03-12T22:40:13.836Z,4.70
2024-03-12T22:42:43.251Z,3.90
2024-03-12T22:45:12.975Z,4.70
2024-03-12T22:47:42.231Z,4.50
2024-03-12T22:50:11.034Z,4.60
2024-03-12T22:52:41.066Z,4.00
2024-03-12T22:55:09.917Z,4.10
2024-03-12T22:57:40.054Z,3.80
2024-03-12T23:00:32.466Z,3.90
2024-03-12T23:03:02.758Z,3.70
2024-03-12T23:05:35.148Z,4.10
2024-03-12T23:08:09.526Z,3.90
2024-03-12T23:10:41.946Z,4.40
2024-03-12T23:13:17.717Z,4.50
2024-03-12T23:15:46.744Z,4.80
2024-03-12T23:18:15.169Z,4.50
2024-03-12T23:20:46.166Z,5.30
2024-03-12T23:23:14.927Z,5.20
2024-03-12T23:25:43.776Z,5.20
2024-03-12T23:28:12.402Z,4.90
2024-03-12T23:30:41.430Z,5.20
2024-03-12T23:33:10.138Z,5.30
2024-03-12T23:35:38.645Z,5.30
2024-03-12T23:38:07.069Z,6.20
2024-03-12T23:40:35.560Z,6.10
2024-03-12T23:43:05.166Z,5.80
2024-03-12T23:45:33.775Z,5.80
2024-03-12T23:48:04.268Z,5.90
2024-03-12T23:50:32.741Z,5.90
2024-03-12T23:53:03.109Z,5.60
2024-03-12T23:55:31.640Z,5.60
2024-03-12T23:58:01.036Z,6.00
